createdAt,value
2023-05-20T00:00:26.611Z,1016.28
2023-05-20T00:01:26.645Z,1016.30
2023-05-20T00:02:26.713Z,1016.25
2023-05-20T00:03:26.812Z,1016.25
2023-05-20T00:04:26.738Z,1016.26
2023-05-20T00:05:26.747Z,1016.31
2023-05-20T00:06:26.806Z,1016.28
2023-05-20T00:07:26.812Z,1016.27
2023-05-20T00:08:26.843Z,1016.31
2023-05-20T00:09:26.860Z,1016.30
2023-05-20T00:10:26.889Z,1016.25
2023-05-20T00:11:26.923Z,1016.22
2023-05-20T00:12:26.944Z,1016.23
2023-05-20T00:13:26.993Z,1016.21
2023-05-20T00:14:27.000Z,1016.21
2023-05-20T00:15:27.024Z,1016.21
2023-05-20T00:16:27.074Z,1016.22
2023-05-20T00:17:27.122Z,1016.20
2023-05-20T00:18:27.115Z,1016.19
2023-05-20T00:19:27.161Z,1016.26
2023-05-20T00:20:27.161Z,1016.26
2023-05-20T00:21:27.190Z,1016.26
2023-05-20T00:22:27.236Z,1016.26
2023-05-20T00:23:27.246Z,1016.21
2023-05-20T00:24:27.273Z,1016.28
2023-05-20T00:25:27.300Z,1016.24
2023-05-20T00:26:27.339Z,1016.31
2023-05-20T00:27:27.367Z,1016.21
2023-05-20T00:28:27.393Z,1016.21
2023-05-20T00:29:27.408Z,1016.22
2023-05-20T00:30:30.065Z,1016.23
2023-05-20T00:31:27.495Z,1016.24
2023-05-20T00:32:27.610Z,1016.21
2023-05-20T00:33:27.524Z,1016.20
2023-05-20T00:34:27.548Z,1016.21
2023-05-20T00:35:27.571Z,1016.18
2023-05-20T00:36:27.598Z,1016.20
2023-05-20T00:37:27.632Z,1016.17
2023-05-20T00:38:27.743Z,1016.15
2023-05-20T00:39:27.686Z,1016.14
2023-05-20T00:40:27.725Z,1016.18
2023-05-20T00:41:27.736Z,1016.18
2023-05-20T00:42:27.765Z,1016.19
2023-05-20T00:43:27.788Z,1016.16
2023-05-20T00:44:27.832Z,1016.12
2023-05-20T00:45:27.844Z,1016.14
2023-05-20T00:46:27.900Z,1016.09
2023-05-20T00:47:27.924Z,1016.09
2023-05-20T00:48:27.927Z,1016.08
2023-05-20T00:49:27.954Z,1016.08
2023-05-20T00:50:27.985Z,1016.12
2023-05-20T00:51:28.011Z,1016.08
2023-05-20T00:52:28.033Z,1016.10
2023-05-20T00:53:28.067Z,1016.02
2023-05-20T00:54:28.111Z,1016.03
2023-05-20T00:55:28.122Z,1016.02
2023-05-20T00:56:28.144Z,1015.99
2023-05-20T00:57:28.172Z,1016.01
2023-05-20T00:58:28.214Z,1015.98
2023-05-20T00:59:28.222Z,1015.99
2023-05-20T01:00:28.258Z,1015.97
2023-05-20T01:01:28.338Z,1016.01
2023-05-20T01:02:28.420Z,1015.97
2023-05-20T01:03:28.463Z,1016.01
2023-05-20T01:04:28.361Z,1016.00
2023-05-20T01:05:28.399Z,1015.96
2023-05-20T01:06:28.412Z,1015.97
2023-05-20T01:07:28.439Z,1015.99
2023-05-20T01:08:28.471Z,1015.95
2023-05-20T01:09:28.504Z,1015.99
2023-05-20T01:10:28.545Z,1015.99
2023-05-20T01:11:28.548Z,1015.97
2023-05-20T01:12:28.582Z,1015.99
2023-05-20T01:13:28.608Z,1015.92
2023-05-20T01:14:28.629Z,1015.93
2023-05-20T01:15:28.662Z,1015.90
2023-05-20T01:16:28.749Z,1015.90
2023-05-20T01:17:28.748Z,1015.87
2023-05-20T01:18:28.739Z,1015.86
2023-05-20T01:19:28.814Z,1015.88
2023-05-20T01:20:28.801Z,1015.86
2023-05-20T01:21:28.819Z,1015.84
2023-05-20T01:22:28.851Z,1015.87
2023-05-20T01:23:28.874Z,1015.90
2023-05-20T01:24:28.905Z,1015.85
2023-05-20T01:25:28.924Z,1015.88
2023-05-20T01:26:28.979Z,1015.88
2023-05-20T01:27:28.985Z,1015.89
2023-05-20T01:28:29.008Z,1015.86
2023-05-20T01:29:29.033Z,1015.88
2023-05-20T01:30:29.265Z,1015.85
2023-05-20T01:32:11.638Z,1015.86
2023-05-20T01:33:11.685Z,1015.86
2023-05-20T01:34:11.688Z,1015.84
2023-05-20T01:35:11.713Z,1015.83
2023-05-20T01:36:11.741Z,1015.85
2023-05-20T01:37:11.772Z,1015.79
2023-05-20T01:38:11.791Z,1015.81
2023-05-20T01:39:11.822Z,1015.82
2023-05-20T01:40:11.845Z,1015.79
2023-05-20T01:41:11.873Z,1015.80
2023-05-20T01:42:11.967Z,1015.84
2023-05-20T01:43:11.927Z,1015.80
2023-05-20T01:44:11.951Z,1015.80
2023-05-20T01:45:11.987Z,1015.84
2023-05-20T01:46:12.036Z,1015.78
2023-05-20T01:47:12.033Z,1015.78
2023-05-20T01:48:12.112Z,1015.76
2023-05-20T01:49:12.092Z,1015.78
2023-05-20T01:50:12.120Z,1015.79
2023-05-20T01:51:12.142Z,1015.77
2023-05-20T01:52:12.780Z,1015.73
2023-05-20T01:53:12.193Z,1015.75
2023-05-20T01:54:12.217Z,1015.77
2023-05-20T01:55:12.245Z,1015.73
2023-05-20T01:56:12.269Z,1015.76
2023-05-20T01:57:12.301Z,1015.75
2023-05-20T01:58:12.424Z,1015.75
2023-05-20T01:59:12.355Z,1015.77
2023-05-20T02:00:12.380Z,1015.73
2023-05-20T02:01:12.499Z,1015.70
2023-05-20T02:02:12.458Z,1015.70
2023-05-20T02:03:12.503Z,1015.70
2023-05-20T02:04:12.487Z,1015.69
2023-05-20T02:05:12.518Z,1015.68
2023-05-20T02:06:12.656Z,1015.74
2023-05-20T02:07:12.580Z,1015.70
2023-05-20T02:08:12.601Z,1015.69
2023-05-20T02:09:12.622Z,1015.65
2023-05-20T02:10:12.667Z,1015.66
2023-05-20T02:11:12.678Z,1015.68
2023-05-20T02:12:12.704Z,1015.62
2023-05-20T02:13:12.732Z,1015.67
2023-05-20T02:14:12.775Z,1015.70
2023-05-20T02:15:12.791Z,1015.67
2023-05-20T02:16:12.817Z,1015.68
2023-05-20T02:17:12.870Z,1015.68
2023-05-20T02:18:12.924Z,1015.68
2023-05-20T02:19:13.269Z,1015.72
2023-05-20T02:20:12.920Z,1015.67
2023-05-20T02:21:12.949Z,1015.69
2023-05-20T02:22:12.975Z,1015.66
2023-05-20T02:23:13.005Z,1015.72
2023-05-20T02:24:13.028Z,1015.62
2023-05-20T02:25:13.058Z,1015.64
2023-05-20T02:26:13.096Z,1015.58
2023-05-20T02:27:13.184Z,1015.62
2023-05-20T02:28:13.138Z,1015.59
2023-05-20T02:29:13.162Z,1015.61
2023-05-20T02:30:13.205Z,1015.59
2023-05-20T02:31:13.232Z,1015.60
2023-05-20T02:32:13.245Z,1015.55
2023-05-20T02:33:13.316Z,1015.61
2023-05-20T02:34:13.335Z,1015.60
2023-05-20T02:35:13.322Z,1015.57
2023-05-20T02:36:13.350Z,1015.61
2023-05-20T02:37:13.378Z,1015.56
2023-05-20T02:38:13.411Z,1015.57
2023-05-20T02:39:13.434Z,1015.60
2023-05-20T02:40:13.458Z,1015.61
2023-05-20T02:41:13.489Z,1015.54
2023-05-20T02:42:13.515Z,1015.56
2023-05-20T02:43:13.564Z,1015.59
2023-05-20T02:44:13.574Z,1015.61
2023-05-20T02:45:13.597Z,1015.59
2023-05-20T02:46:13.689Z,1015.61
2023-05-20T02:47:13.646Z,1015.60
2023-05-20T02:48:13.669Z,1015.57
2023-05-20T02:49:13.699Z,1015.55
2023-05-20T02:50:13.729Z,1015.57
2023-05-20T02:51:13.753Z,1015.54
2023-05-20T02:52:13.779Z,1015.59
2023-05-20T02:53:13.806Z,1015.53
2023-05-20T02:54:13.837Z,1015.52
2023-05-20T02:55:13.858Z,1015.49
2023-05-20T02:56:13.884Z,1015.48
2023-05-20T02:57:13.911Z,1015.47
2023-05-20T02:58:13.939Z,1015.45
2023-05-20T02:59:13.982Z,1015.47
2023-05-20T03:00:13.994Z,1015.47
2023-05-20T03:01:14.040Z,1015.49
2023-05-20T03:02:14.070Z,1015.44
2023-05-20T03:03:14.073Z,1015.50
2023-05-20T03:04:14.119Z,1015.47
2023-05-20T03:05:14.127Z,1015.40
2023-05-20T03:06:14.150Z,1015.40
2023-05-20T03:07:14.178Z,1015.41
2023-05-20T03:08:14.202Z,1015.41
2023-05-20T03:09:14.234Z,1015.38
2023-05-20T03:10:14.270Z,1015.40
2023-05-20T03:11:14.283Z,1015.39
2023-05-20T03:12:14.320Z,1015.38
2023-05-20T03:13:14.344Z,1015.36
2023-05-20T03:14:14.366Z,1015.37
2023-05-20T03:15:14.396Z,1015.36
2023-05-20T03:16:14.441Z,1015.37
2023-05-20T03:17:14.455Z,1015.36
2023-05-20T03:18:14.490Z,1015.36
2023-05-20T03:19:14.555Z,1015.34
2023-05-20T03:20:14.531Z,1015.36
2023-05-20T03:21:14.546Z,1015.36
2023-05-20T03:22:14.574Z,1015.43
2023-05-20T03:23:14.601Z,1015.41
2023-05-20T03:24:14.626Z,1015.40
2023-05-20T03:25:14.658Z,1015.40
2023-05-20T03:26:14.680Z,1015.39
2023-05-20T03:27:14.708Z,1015.42
2023-05-20T03:28:14.732Z,1015.44
2023-05-20T03:29:14.763Z,1015.45
2023-05-20T03:30:14.788Z,1015.43
2023-05-20T03:31:14.848Z,1015.44
2023-05-20T03:32:14.837Z,1015.45
2023-05-20T03:33:14.866Z,1015.48
2023-05-20T03:34:14.925Z,1015.49
2023-05-20T03:35:14.936Z,1015.49
2023-05-20T03:36:15.959Z,1015.46
2023-05-20T03:37:14.970Z,1015.49
2023-05-20T03:38:15.013Z,1015.50
2023-05-20T03:39:15.025Z,1015.52
2023-05-20T03:40:15.060Z,1015.53
2023-05-20T03:41:15.077Z,1015.53
2023-05-20T03:42:15.104Z,1015.54
2023-05-20T03:43:15.129Z,1015.52
2023-05-20T03:44:15.155Z,1015.48
2023-05-20T03:45:15.185Z,1015.51
2023-05-20T03:46:15.283Z,1015.47
2023-05-20T03:47:15.281Z,1015.48
2023-05-20T03:48:15.374Z,1015.49
2023-05-20T03:49:15.352Z,1015.52
2023-05-20T03:50:15.339Z,1015.56
2023-05-20T03:51:15.391Z,1015.52
2023-05-20T03:52:15.388Z,1015.54
2023-05-20T03:53:15.394Z,1015.58
2023-05-20T03:54:15.421Z,1015.63
2023-05-20T03:55:15.447Z,1015.56
2023-05-20T03:56:15.564Z,1015.60
2023-05-20T03:57:15.511Z,1015.61
2023-05-20T03:58:15.594Z,1015.60
2023-05-20T03:59:15.558Z,1015.59
2023-05-20T04:00:15.577Z,1015.58
2023-05-20T04:01:15.611Z,1015.57
2023-05-20T04:02:15.721Z,1015.61
2023-05-20T04:03:15.749Z,1015.67
2023-05-20T04:04:15.866Z,1015.55
2023-05-20T04:05:15.719Z,1015.61
2023-05-20T04:06:15.757Z,1015.61
2023-05-20T04:07:15.778Z,1015.58
2023-05-20T04:08:15.792Z,1015.59
2023-05-20T04:09:15.828Z,1015.63
2023-05-20T04:10:15.859Z,1015.66
2023-05-20T04:11:15.869Z,1015.61
2023-05-20T04:12:15.895Z,1015.55
2023-05-20T04:13:15.926Z,1015.56
2023-05-20T04:14:15.950Z,1015.56
2023-05-20T04:15:15.979Z,1015.50
2023-05-20T04:16:16.027Z,1015.53
2023-05-20T04:17:16.032Z,1015.51
2023-05-20T04:18:16.092Z,1015.52
2023-05-20T04:19:16.143Z,1015.50
2023-05-20T04:20:16.149Z,1015.54
2023-05-20T04:21:16.138Z,1015.53
2023-05-20T04:22:16.180Z,1015.51
2023-05-20T04:23:16.201Z,1015.51
2023-05-20T04:24:16.214Z,1015.51
2023-05-20T04:25:16.246Z,1015.51
2023-05-20T04:26:16.270Z,1015.54
2023-05-20T04:27:16.300Z,1015.51
2023-05-20T04:28:16.431Z,1015.52
2023-05-20T04:29:16.350Z,1015.51
2023-05-20T04:30:16.381Z,1015.54
2023-05-20T04:31:16.534Z,1015.54
2023-05-20T04:32:16.447Z,1015.57
2023-05-20T04:33:16.464Z,1015.57
2023-05-20T04:34:16.482Z,1015.53
2023-05-20T04:35:16.516Z,1015.55
2023-05-20T04:36:16.817Z,1015.55
2023-05-20T04:37:16.562Z,1015.55
2023-05-20T04:38:16.608Z,1015.52
2023-05-20T04:39:16.617Z,1015.46
2023-05-20T04:40:16.646Z,1015.49
2023-05-20T04:41:16.682Z,1015.52
2023-05-20T04:42:16.697Z,1015.54
2023-05-20T04:43:16.727Z,1015.53
2023-05-20T04:44:16.751Z,1015.57
2023-05-20T04:45:16.780Z,1015.56
2023-05-20T04:46:16.935Z,1015.60
2023-05-20T04:47:16.831Z,1015.56
2023-05-20T04:48:16.859Z,1015.56
2023-05-20T04:49:16.901Z,1015.58
2023-05-20T04:50:16.912Z,1015.58
2023-05-20T04:51:16.941Z,1015.54
2023-05-20T04:52:16.970Z,1015.59
2023-05-20T04:53:16.996Z,1015.58
2023-05-20T04:54:17.046Z,1015.58
2023-05-20T04:55:17.049Z,1015.59
2023-05-20T04:56:17.117Z,1015.61
2023-05-20T04:57:17.109Z,1015.59
2023-05-20T04:58:17.132Z,1015.62
2023-05-20T04:59:17.159Z,1015.62
2023-05-20T05:00:17.184Z,1015.61
2023-05-20T05:01:17.224Z,1015.61
2023-05-20T05:02:17.240Z,1015.56
2023-05-20T05:03:17.312Z,1015.51
2023-05-20T05:04:17.332Z,1015.57
2023-05-20T05:05:17.332Z,1015.55
2023-05-20T05:06:17.350Z,1015.53
2023-05-20T05:07:17.377Z,1015.58
2023-05-20T05:08:17.485Z,1015.55
2023-05-20T05:09:17.444Z,1015.54
2023-05-20T05:10:17.472Z,1015.54
2023-05-20T05:11:17.511Z,1015.55
2023-05-20T05:12:17.517Z,1015.59
2023-05-20T05:13:17.541Z,1015.55
2023-05-20T05:14:17.568Z,1015.53
2023-05-20T05:15:17.600Z,1015.51
2023-05-20T05:16:17.638Z,1015.53
2023-05-20T05:17:17.657Z,1015.46
2023-05-20T05:18:17.680Z,1015.48
2023-05-20T05:19:17.722Z,1015.54
2023-05-20T05:20:17.736Z,1015.52
2023-05-20T05:21:17.779Z,1015.49
2023-05-20T05:22:17.790Z,1015.47
2023-05-20T05:23:17.816Z,1015.46
2023-05-20T05:24:17.848Z,1015.45
2023-05-20T05:25:17.894Z,1015.46
2023-05-20T05:26:17.929Z,1015.43
2023-05-20T05:27:17.936Z,1015.41
2023-05-20T05:28:17.960Z,1015.41
2023-05-20T05:29:17.992Z,1015.35
2023-05-20T05:30:18.016Z,1015.32
2023-05-20T05:31:18.044Z,1015.35
2023-05-20T05:32:18.145Z,1015.34
2023-05-20T05:33:18.142Z,1015.37
2023-05-20T05:34:18.129Z,1015.34
2023-05-20T05:35:18.161Z,1015.33
2023-05-20T05:36:18.198Z,1015.31
2023-05-20T05:37:18.214Z,1015.32
2023-05-20T05:38:18.248Z,1015.26
2023-05-20T05:39:18.267Z,1015.27
2023-05-20T05:40:18.303Z,1015.23
2023-05-20T05:41:18.332Z,1015.23
2023-05-20T05:42:18.374Z,1015.20
2023-05-20T05:43:18.390Z,1015.21
2023-05-20T05:44:18.410Z,1015.23
2023-05-20T05:45:18.450Z,1015.22
2023-05-20T05:46:18.524Z,1015.24
2023-05-20T05:47:18.495Z,1015.20
2023-05-20T05:48:18.522Z,1015.20
2023-05-20T05:49:18.549Z,1015.19
2023-05-20T05:50:18.581Z,1015.15
2023-05-20T05:51:18.613Z,1015.16
2023-05-20T05:52:18.636Z,1015.18
2023-05-20T05:53:18.676Z,1015.21
2023-05-20T05:54:18.696Z,1015.21
2023-05-20T05:55:18.721Z,1015.19
2023-05-20T05:56:18.752Z,1015.15
2023-05-20T05:57:18.779Z,1015.08
2023-05-20T05:58:18.830Z,1015.12
2023-05-20T05:59:18.835Z,1015.08
2023-05-20T06:00:18.886Z,1015.08
2023-05-20T06:01:18.933Z,1015.09
2023-05-20T06:02:18.953Z,1015.14
2023-05-20T06:03:19.006Z,1015.08
2023-05-20T06:04:19.020Z,1015.11
2023-05-20T06:05:19.024Z,1015.17
2023-05-20T06:06:19.041Z,1015.10
2023-05-20T06:07:19.069Z,1015.11
2023-05-20T06:08:19.099Z,1015.06
2023-05-20T06:09:19.123Z,1015.11
2023-05-20T06:10:19.156Z,1015.06
2023-05-20T06:11:19.202Z,1015.07
2023-05-20T06:12:19.214Z,1015.05
2023-05-20T06:13:19.248Z,1015.07
2023-05-20T06:14:19.294Z,1015.07
2023-05-20T06:15:19.299Z,1015.06
2023-05-20T06:16:19.383Z,1015.06
2023-05-20T06:17:19.353Z,1015.04
2023-05-20T06:18:19.389Z,1015.05
2023-05-20T06:19:23.460Z,1015.03
2023-05-20T06:20:19.447Z,1015.03
2023-05-20T06:21:19.470Z,1015.03
2023-05-20T06:22:19.496Z,1015.04
2023-05-20T06:23:19.524Z,1015.02
2023-05-20T06:24:19.568Z,1015.04
2023-05-20T06:25:19.615Z,1015.04
2023-05-20T06:26:19.630Z,1014.99
2023-05-20T06:27:19.648Z,1015.01
2023-05-20T06:28:19.683Z,1014.98
2023-05-20T06:29:19.711Z,1014.98
2023-05-20T06:30:19.748Z,1014.97
2023-05-20T06:31:19.775Z,1015.02
2023-05-20T06:32:19.788Z,1015.00
2023-05-20T06:33:19.827Z,1014.97
2023-05-20T06:34:19.850Z,1014.99
2023-05-20T06:35:20.496Z,1015.01
2023-05-20T06:36:19.901Z,1015.03
2023-05-20T06:37:19.942Z,1014.98
2023-05-20T06:38:20.054Z,1015.01
2023-05-20T06:39:20.197Z,1015.04
2023-05-20T06:40:20.034Z,1015.01
2023-05-20T06:41:20.050Z,1014.94
2023-05-20T06:42:20.094Z,1014.98
2023-05-20T06:43:20.120Z,1014.91
2023-05-20T06:44:20.160Z,1014.95
2023-05-20T06:45:20.876Z,1014.93
2023-05-20T06:46:20.244Z,1014.93
2023-05-20T06:47:20.263Z,1014.92
2023-05-20T06:48:20.258Z,1014.90
2023-05-20T06:49:20.286Z,1014.95
2023-05-20T06:50:20.315Z,1014.95
2023-05-20T06:51:20.352Z,1014.93
2023-05-20T06:52:20.376Z,1014.90
2023-05-20T06:53:20.427Z,1014.94
2023-05-20T06:54:20.435Z,1014.91
2023-05-20T06:55:20.463Z,1014.91
2023-05-20T06:56:20.498Z,1014.93
2023-05-20T06:57:20.522Z,1014.91
2023-05-20T06:58:20.552Z,1014.91
2023-05-20T06:59:20.599Z,1014.89
2023-05-20T07:00:20.678Z,1014.95
2023-05-20T07:01:20.711Z,1014.84
2023-05-20T07:02:20.694Z,1014.82
2023-05-20T07:03:20.744Z,1014.85
2023-05-20T07:04:21.288Z,1014.84
2023-05-20T07:05:20.752Z,1014.84
2023-05-20T07:06:20.796Z,1014.82
2023-05-20T07:07:20.818Z,1014.84
2023-05-20T07:09:20.895Z,1014.81
2023-05-20T07:11:21.140Z,1014.82
2023-05-20T07:12:20.965Z,1014.85
2023-05-20T07:14:21.041Z,1014.76
2023-05-20T07:15:21.271Z,1014.72
2023-05-20T07:16:21.113Z,1014.78
2023-05-20T07:17:21.332Z,1014.73
2023-05-20T07:18:21.163Z,1014.75
2023-05-20T07:19:21.490Z,1014.74
2023-05-20T07:20:21.261Z,1014.71
2023-05-20T07:21:21.965Z,1014.71
2023-05-20T07:22:21.284Z,1014.67
2023-05-20T07:23:21.300Z,1014.66
2023-05-20T07:24:21.332Z,1014.69
2023-05-20T07:25:21.355Z,1014.65
2023-05-20T07:26:21.388Z,1014.64
2023-05-20T07:27:21.423Z,1014.73
2023-05-20T07:28:21.463Z,1014.69
2023-05-20T07:29:24.519Z,1014.64
2023-05-20T07:30:21.516Z,1014.67
2023-05-20T07:31:21.562Z,1014.66
2023-05-20T07:32:21.585Z,1014.56
2023-05-20T07:33:21.606Z,1014.67
2023-05-20T07:34:21.677Z,1014.66
2023-05-20T07:35:21.671Z,1014.65
2023-05-20T07:36:21.706Z,1014.69
2023-05-20T07:37:21.733Z,1014.63
2023-05-20T07:38:21.760Z,1014.61
2023-05-20T07:39:22.806Z,1014.56
2023-05-20T07:40:21.826Z,1014.58
2023-05-20T07:41:21.865Z,1014.54
2023-05-20T07:42:21.890Z,1014.58
2023-05-20T07:43:21.932Z,1014.52
2023-05-20T07:44:21.956Z,1014.55
2023-05-20T07:45:21.987Z,1014.50
2023-05-20T07:46:22.068Z,1014.49
2023-05-20T07:47:22.053Z,1014.54
2023-05-20T07:48:22.082Z,1014.49
2023-05-20T07:49:22.114Z,1014.54
2023-05-20T07:50:22.167Z,1014.49
2023-05-20T07:51:22.178Z,1014.48
2023-05-20T07:52:24.834Z,1014.55
2023-05-20T07:53:22.244Z,1014.57
2023-05-20T07:54:23.079Z,1014.53
2023-05-20T07:55:22.305Z,1014.53
2023-05-20T07:56:22.355Z,1014.51
2023-05-20T07:57:22.384Z,1014.46
2023-05-20T07:58:22.404Z,1014.47
2023-05-20T07:59:22.438Z,1014.46
2023-05-20T08:00:22.464Z,1014.48
2023-05-20T08:01:22.502Z,1014.46
2023-05-20T08:02:22.607Z,1014.44
2023-05-20T08:03:22.858Z,1014.43
2023-05-20T08:04:22.630Z,1014.44
2023-05-20T08:05:22.643Z,1014.43
2023-05-20T08:06:22.677Z,1014.45
2023-05-20T08:07:22.693Z,1014.45
2023-05-20T08:08:22.718Z,1014.50
2023-05-20T08:09:22.755Z,1014.49
2023-05-20T08:10:22.866Z,1014.50
2023-05-20T08:11:22.816Z,1014.46
2023-05-20T08:12:22.847Z,1014.43
2023-05-20T08:13:22.884Z,1014.45
2023-05-20T08:14:22.914Z,1014.45
2023-05-20T08:15:22.961Z,1014.42
2023-05-20T08:16:23.010Z,1014.46
2023-05-20T08:17:23.070Z,1014.42
2023-05-20T08:18:23.038Z,1014.41
2023-05-20T08:19:23.093Z,1014.46
2023-05-20T08:20:23.192Z,1014.44
2023-05-20T08:21:23.146Z,1014.45
2023-05-20T08:22:23.191Z,1014.45
2023-05-20T08:23:23.202Z,1014.46
2023-05-20T08:24:23.235Z,1014.46
2023-05-20T08:25:23.265Z,1014.34
2023-05-20T08:26:23.303Z,1014.42
2023-05-20T08:27:23.325Z,1014.36
2023-05-20T08:28:23.355Z,1014.36
2023-05-20T08:29:23.392Z,1014.37
2023-05-20T08:30:23.417Z,1014.45
2023-05-20T08:31:23.521Z,1014.40
2023-05-20T08:32:23.581Z,1014.39
2023-05-20T08:33:23.515Z,1014.36
2023-05-20T08:34:23.546Z,1014.36
2023-05-20T08:35:24.839Z,1014.38
2023-05-20T08:36:23.609Z,1014.38
2023-05-20T08:37:23.644Z,1014.33
2023-05-20T08:38:23.711Z,1014.34
2023-05-20T08:39:23.708Z,1014.37
2023-05-20T08:40:23.749Z,1014.38
2023-05-20T08:41:23.772Z,1014.38
2023-05-20T08:42:23.803Z,1014.36
2023-05-20T08:43:23.834Z,1014.33
2023-05-20T08:44:23.867Z,1014.34
2023-05-20T08:45:23.904Z,1014.37
2023-05-20T08:46:23.937Z,1014.35
2023-05-20T08:47:23.968Z,1014.33
2023-05-20T08:48:24.012Z,1014.33
2023-05-20T08:49:24.032Z,1014.31
2023-05-20T08:50:24.064Z,1014.28
2023-05-20T08:51:24.121Z,1014.31
2023-05-20T08:52:24.126Z,1014.29
2023-05-20T08:53:24.163Z,1014.27
2023-05-20T08:54:24.222Z,1014.30
2023-05-20T08:55:24.240Z,1014.32
2023-05-20T08:56:24.252Z,1014.28
2023-05-20T08:57:24.301Z,1014.28
2023-05-20T08:58:24.320Z,1014.24
2023-05-20T08:59:24.356Z,1014.18
2023-05-20T09:00:24.384Z,1014.17
2023-05-20T09:01:25.075Z,1014.14
2023-05-20T09:02:24.487Z,1014.21
2023-05-20T09:03:24.496Z,1014.20
2023-05-20T09:04:24.524Z,1014.21
2023-05-20T09:05:24.551Z,1014.18
2023-05-20T09:06:24.596Z,1014.15
2023-05-20T09:07:25.141Z,1014.14
2023-05-20T09:08:24.964Z,1014.15
2023-05-20T09:11:24.784Z,1014.16
2023-05-20T09:13:24.828Z,1014.20
2023-05-20T09:14:24.844Z,1014.20
2023-05-20T09:15:24.881Z,1014.16
2023-05-20T09:16:25.007Z,1014.20
2023-05-20T09:17:27.646Z,1014.25
2023-05-20T09:18:25.516Z,1014.21
2023-05-20T09:20:25.042Z,1014.12
2023-05-20T09:21:25.072Z,1014.19
2023-05-20T09:22:26.372Z,1014.13
2023-05-20T09:23:25.135Z,1014.18
2023-05-20T09:24:25.185Z,1014.16
2023-05-20T09:26:07.835Z,1014.17
2023-05-20T09:27:07.879Z,1014.14
2023-05-20T09:28:07.891Z,1014.16
2023-05-20T09:29:08.930Z,1014.10
2023-05-20T09:30:07.969Z,1014.15
2023-05-20T09:31:10.811Z,1014.10
2023-05-20T09:32:08.062Z,1014.05
2023-05-20T09:33:08.094Z,1014.05
2023-05-20T09:34:08.095Z,1014.07
2023-05-20T09:42:09.072Z,1013.99
2023-05-20T09:46:08.674Z,1014.05
2023-05-20T09:48:08.604Z,1014.04
2023-05-20T09:55:03.759Z,1013.98
2023-05-20T09:56:01.178Z,1013.92
2023-05-20T09:57:01.214Z,1013.96
2023-05-20T09:58:01.234Z,1014.01
2023-05-20T09:59:01.483Z,1013.99
2023-05-20T10:00:01.298Z,1013.99
2023-05-20T10:01:01.414Z,1013.97
2023-05-20T10:02:01.414Z,1014.03
2023-05-20T10:03:01.488Z,1014.03
2023-05-20T10:04:01.684Z,1014.01
2023-05-20T10:05:01.480Z,1014.01
2023-05-20T10:06:01.731Z,1013.94
2023-05-20T10:07:01.953Z,1013.90
2023-05-20T10:08:01.782Z,1013.91
2023-05-20T10:09:01.599Z,1013.87
2023-05-20T10:10:01.635Z,1013.87
2023-05-20T10:11:01.669Z,1013.94
2023-05-20T10:12:01.704Z,1013.93
2023-05-20T10:13:01.731Z,1013.98
2023-05-20T10:14:01.774Z,1013.92
2023-05-20T10:15:01.820Z,1013.94
2023-05-20T10:16:01.866Z,1013.96
2023-05-20T10:17:01.880Z,1013.97
2023-05-20T10:18:01.967Z,1014.00
2023-05-20T10:19:01.981Z,1013.97
2023-05-20T10:20:02.170Z,1014.00
2023-05-20T10:21:02.013Z,1014.01
2023-05-20T10:22:02.100Z,1014.03
2023-05-20T10:23:02.077Z,1013.98
2023-05-20T10:24:02.846Z,1013.95
2023-05-20T10:25:02.151Z,1013.93
2023-05-20T10:26:02.165Z,1013.92
2023-05-20T10:27:02.206Z,1013.96
2023-05-20T10:28:02.252Z,1013.91
2023-05-20T10:29:02.279Z,1013.92
2023-05-20T10:30:02.315Z,1013.91
2023-05-20T10:31:02.553Z,1013.85
2023-05-20T10:32:02.407Z,1013.89
2023-05-20T10:33:02.551Z,1013.89
2023-05-20T10:34:02.460Z,1013.90
2023-05-20T10:35:02.461Z,1013.95
2023-05-20T10:36:02.930Z,1013.99
2023-05-20T10:38:02.785Z,1013.98
2023-05-20T10:39:02.607Z,1014.03
2023-05-20T10:40:02.635Z,1014.01
2023-05-20T10:41:02.673Z,1013.93
2023-05-20T10:42:02.702Z,1013.99
2023-05-20T10:43:02.949Z,1013.95
2023-05-20T10:45:03.608Z,1013.95
2023-05-20T10:46:05.159Z,1013.98
2023-05-20T10:48:03.804Z,1014.01
2023-05-20T10:49:03.169Z,1013.97
2023-05-20T10:51:03.026Z,1013.96
2023-05-20T10:52:03.227Z,1013.94
2023-05-20T10:53:03.083Z,1013.97
2023-05-20T10:57:03.192Z,1013.91
2023-05-20T10:58:03.221Z,1013.91
2023-05-20T10:59:03.464Z,1013.89
2023-05-20T11:00:03.300Z,1013.93
2023-05-20T11:02:03.757Z,1013.84
2023-05-20T11:03:03.681Z,1013.87
2023-05-20T11:04:03.631Z,1013.93
2023-05-20T11:05:03.657Z,1013.88
2023-05-20T11:06:03.497Z,1013.86
2023-05-20T11:07:03.934Z,1013.84
2023-05-20T11:08:08.081Z,1013.84
2023-05-20T11:09:03.781Z,1013.83
2023-05-20T11:10:03.608Z,1013.78
2023-05-20T11:11:04.152Z,1013.83
2023-05-20T11:13:03.736Z,1013.79
2023-05-20T11:14:03.943Z,1013.85
2023-05-20T11:15:04.187Z,1013.83
2023-05-20T11:16:03.849Z,1013.81
2023-05-20T11:18:04.125Z,1013.82
2023-05-20T11:19:04.342Z,1013.79
2023-05-20T11:20:04.145Z,1013.80
2023-05-20T11:21:04.170Z,1013.78
2023-05-20T11:23:04.042Z,1013.71
2023-05-20T11:24:04.492Z,1013.74
2023-05-20T11:25:04.100Z,1013.71
2023-05-20T11:29:04.239Z,1013.75
2023-05-20T11:30:04.468Z,1013.65
2023-05-20T11:31:04.303Z,1013.65
2023-05-20T11:32:05.310Z,1013.63
2023-05-20T11:35:04.847Z,1013.57
2023-05-20T11:36:08.671Z,1013.59
2023-05-20T11:37:04.495Z,1013.52
2023-05-20T11:38:04.725Z,1013.53
2023-05-20T11:39:04.786Z,1013.52
2023-05-20T11:40:04.794Z,1013.51
2023-05-20T11:42:04.971Z,1013.55
2023-05-20T11:43:04.687Z,1013.56
2023-05-20T11:45:04.756Z,1013.53
2023-05-20T11:46:04.832Z,1013.50
2023-05-20T11:47:04.817Z,1013.50
2023-05-20T11:48:05.495Z,1013.51
2023-05-20T11:49:04.882Z,1013.49
2023-05-20T11:50:04.913Z,1013.46
2023-05-20T11:51:04.940Z,1013.39
2023-05-20T11:52:04.978Z,1013.45
2023-05-20T11:53:05.016Z,1013.47
2023-05-20T11:54:05.033Z,1013.45
2023-05-20T11:55:05.096Z,1013.49
2023-05-20T11:56:05.108Z,1013.45
2023-05-20T11:57:06.985Z,1013.43
2023-05-20T11:58:05.181Z,1013.45
2023-05-20T11:59:05.200Z,1013.43
2023-05-20T12:00:05.234Z,1013.41
2023-05-20T12:01:21.157Z,1013.34
2023-05-20T12:02:05.289Z,1013.33
2023-05-20T12:03:05.372Z,1013.35
2023-05-20T12:04:05.589Z,1013.33
2023-05-20T12:05:05.452Z,1013.27
2023-05-20T12:06:05.423Z,1013.29
2023-05-20T12:07:05.455Z,1013.26
2023-05-20T12:08:05.503Z,1013.26
2023-05-20T12:09:05.520Z,1013.23
2023-05-20T12:10:05.605Z,1013.24
2023-05-20T12:11:05.602Z,1013.17
2023-05-20T12:12:05.612Z,1013.21
2023-05-20T12:13:05.646Z,1013.21
2023-05-20T12:14:05.697Z,1013.22
2023-05-20T12:15:05.707Z,1013.21
2023-05-20T12:16:08.392Z,1013.21
2023-05-20T12:17:05.774Z,1013.22
2023-05-20T12:18:05.886Z,1013.21
2023-05-20T12:19:05.960Z,1013.22
2023-05-20T12:20:05.866Z,1013.21
2023-05-20T12:21:05.901Z,1013.24
2023-05-20T12:22:05.933Z,1013.24
2023-05-20T12:23:05.965Z,1013.21
2023-05-20T12:24:05.996Z,1013.25
2023-05-20T12:25:06.034Z,1013.22
2023-05-20T12:26:06.058Z,1013.21
2023-05-20T12:27:06.120Z,1013.19
2023-05-20T12:28:06.120Z,1013.21
2023-05-20T12:29:06.175Z,1013.18
2023-05-20T12:30:06.198Z,1013.16
2023-05-20T12:31:06.308Z,1013.17
2023-05-20T12:32:06.434Z,1013.12
2023-05-20T12:33:06.345Z,1013.12
2023-05-20T12:34:06.311Z,1013.05
2023-05-20T12:35:06.345Z,1013.14
2023-05-20T12:36:06.386Z,1013.06
2023-05-20T12:37:06.410Z,1013.06
2023-05-20T12:38:06.440Z,1013.04
2023-05-20T12:39:06.474Z,1013.08
2023-05-20T12:40:06.505Z,1013.11
2023-05-20T12:41:06.537Z,1013.10
2023-05-20T12:42:06.568Z,1013.13
2023-05-20T12:43:06.725Z,1013.08
2023-05-20T12:44:06.640Z,1013.03
2023-05-20T12:45:06.667Z,1012.99
2023-05-20T12:46:06.701Z,1013.02
2023-05-20T12:47:06.782Z,1013.02
2023-05-20T12:48:06.837Z,1012.99
2023-05-20T12:49:06.795Z,1012.94